sensor_id;sensor_type;location;lat;lon;timestamp;P1;durP1;ratioP1;P2;durP2;ratioP2
12725;SDS011;6427;49.754;6.106;2022-08-14T00:01:52;2.63;;;2.40;;
12725;SDS011;6427;49.754;6.106;2022-08-14T00:04:19;5.90;;;2.60;;
12725;SDS011;6427;49.754;6.106;2022-08-14T00:06:47;2.70;;;2.50;;
12725;SDS011;6427;49.754;6.106;2022-08-14T00:09:15;2.87;;;2.60;;
12725;SDS011;6427;49.754;6.106;2022-08-14T00:11:43;3.70;;;2.70;;
12725;SDS011;6427;49.754;6.106;2022-08-14T00:14:12;3.20;;;2.70;;
12725;SDS011;6427;49.754;6.106;2022-08-14T00:16:39;4.07;;;2.70;;
12725;SDS011;6427;49.754;6.106;2022-08-14T00:19:08;4.83;;;2.63;;
12725;SDS011;6427;49.754;6.106;2022-08-14T00:21:35;2.80;;;2.60;;
12725;SDS011;6427;49.754;6.106;2022-08-14T00:24:04;3.10;;;2.62;;
12725;SDS011;6427;49.754;6.106;2022-08-14T00:26:31;3.33;;;2.77;;
12725;SDS011;6427;49.754;6.106;2022-08-14T00:28:59;2.83;;;2.63;;
12725;SDS011;6427;49.754;6.106;2022-08-14T00:31:26;2.70;;;2.50;;
12725;SDS011;6427;49.754;6.106;2022-08-14T00:33:54;3.17;;;2.60;;
12725;SDS011;6427;49.754;6.106;2022-08-14T00:36:22;4.17;;;2.90;;
12725;SDS011;6427;49.754;6.106;2022-08-14T00:38:49;3.00;;;2.67;;
12725;SDS011;6427;49.754;6.106;2022-08-14T00:41:18;3.23;;;2.90;;
12725;SDS011;6427;49.754;6.106;2022-08-14T00:43:45;4.32;;;3.10;;
12725;SDS011;6427;49.754;6.106;2022-08-14T00:46:14;3.10;;;2.83;;
12725;SDS011;6427;49.754;6.106;2022-08-14T00:48:41;3.23;;;2.93;;
12725;SDS011;6427;49.754;6.106;2022-08-14T00:51:10;4.60;;;3.40;;
12725;SDS011;6427;49.754;6.106;2022-08-14T00:53:37;3.03;;;2.83;;
12725;SDS011;6427;49.754;6.106;2022-08-14T00:56:05;5.83;;;3.00;;
12725;SDS011;6427;49.754;6.106;2022-08-14T00:58:33;4.83;;;2.83;;
12725;SDS011;6427;49.754;6.106;2022-08-14T01:01:07;3.03;;;2.83;;
12725;SDS011;6427;49.754;6.106;2022-08-14T01:03:31;3.67;;;2.80;;
12725;SDS011;6427;49.754;6.106;2022-08-14T01:05:58;6.77;;;3.13;;
12725;SDS011;6427;49.754;6.106;2022-08-14T01:08:27;4.87;;;2.50;;
12725;SDS011;6427;49.754;6.106;2022-08-14T01:10:54;4.13;;;2.80;;
12725;SDS011;6427;49.754;6.106;2022-08-14T01:13:28;3.57;;;2.73;;
12725;SDS011;6427;49.754;6.106;2022-08-14T01:15:53;4.15;;;3.00;;
12725;SDS011;6427;49.754;6.106;2022-08-14T01:18:21;3.95;;;3.00;;
12725;SDS011;6427;49.754;6.106;2022-08-14T01:21:06;3.13;;;2.83;;
12725;SDS011;6427;49.754;6.106;2022-08-14T01:23:33;5.27;;;3.17;;
12725;SDS011;6427;49.754;6.106;2022-08-14T01:26:01;4.33;;;3.07;;
12725;SDS011;6427;49.754;6.106;2022-08-14T01:28:28;3.72;;;2.97;;
12725;SDS011;6427;49.754;6.106;2022-08-14T01:30:56;5.70;;;3.30;;
12725;SDS011;6427;49.754;6.106;2022-08-14T01:33:24;4.13;;;3.10;;
12725;SDS011;6427;49.754;6.106;2022-08-14T01:35:58;3.57;;;3.27;;
12725;SDS011;6427;49.754;6.106;2022-08-14T01:38:26;3.90;;;3.33;;
12725;SDS011;6427;49.754;6.106;2022-08-14T01:40:53;3.30;;;3.00;;
12725;SDS011;6427;49.754;6.106;2022-08-14T01:43:21;6.05;;;3.75;;
12725;SDS011;6427;49.754;6.106;2022-08-14T01:45:48;7.77;;;3.57;;
12725;SDS011;6427;49.754;6.106;2022-08-14T01:48:17;3.53;;;3.23;;
12725;SDS011;6427;49.754;6.106;2022-08-14T01:50:44;3.83;;;3.43;;
12725;SDS011;6427;49.754;6.106;2022-08-14T01:53:12;5.78;;;3.67;;
12725;SDS011;6427;49.754;6.106;2022-08-14T01:55:40;6.53;;;3.30;;
12725;SDS011;6427;49.754;6.106;2022-08-14T01:58:07;3.63;;;3.03;;
12725;SDS011;6427;49.754;6.106;2022-08-14T02:00:38;4.47;;;3.67;;
12725;SDS011;6427;49.754;6.106;2022-08-14T02:03:06;3.33;;;2.97;;
12725;SDS011;6427;49.754;6.106;2022-08-14T02:05:33;3.97;;;3.27;;
12725;SDS011;6427;49.754;6.106;2022-08-14T02:08:01;3.77;;;3.30;;
12725;SDS011;6427;49.754;6.106;2022-08-14T02:10:29;3.50;;;2.93;;
12725;SDS011;6427;49.754;6.106;2022-08-14T02:12:56;3.63;;;3.33;;
12725;SDS011;6427;49.754;6.106;2022-08-14T02:15:25;3.60;;;3.30;;
12725;SDS011;6427;49.754;6.106;2022-08-14T02:17:53;3.57;;;3.27;;
12725;SDS011;6427;49.754;6.106;2022-08-14T02:20:20;4.00;;;3.47;;
12725;SDS011;6427;49.754;6.106;2022-08-14T02:22:48;4.37;;;3.57;;
12725;SDS011;6427;49.754;6.106;2022-08-14T02:25:16;4.60;;;3.60;;
12725;SDS011;6427;49.754;6.106;2022-08-14T02:27:44;3.40;;;3.10;;
12725;SDS011;6427;49.754;6.106;2022-08-14T02:30:12;4.47;;;3.30;;
12725;SDS011;6427;49.754;6.106;2022-08-14T02:32:41;3.90;;;3.50;;
12725;SDS011;6427;49.754;6.106;2022-08-14T02:35:09;7.87;;;3.37;;
12725;SDS011;6427;49.754;6.106;2022-08-14T02:37:40;3.60;;;3.30;;
12725;SDS011;6427;49.754;6.106;2022-08-14T02:40:08;7.93;;;3.50;;
12725;SDS011;6427;49.754;6.106;2022-08-14T02:42:35;4.20;;;3.30;;
12725;SDS011;6427;49.754;6.106;2022-08-14T02:45:04;4.50;;;3.40;;
12725;SDS011;6427;49.754;6.106;2022-08-14T02:47:32;4.57;;;3.80;;
12725;SDS011;6427;49.754;6.106;2022-08-14T02:50:00;4.23;;;3.37;;
12725;SDS011;6427;49.754;6.106;2022-08-14T02:52:29;3.83;;;3.53;;
12725;SDS011;6427;49.754;6.106;2022-08-14T02:54:56;4.17;;;3.43;;
12725;SDS011;6427;49.754;6.106;2022-08-14T02:57:25;4.57;;;4.10;;
12725;SDS011;6427;49.754;6.106;2022-08-14T02:59:52;4.30;;;3.97;;
12725;SDS011;6427;49.754;6.106;2022-08-14T03:02:19;10.97;;;4.23;;
12725;SDS011;6427;49.754;6.106;2022-08-14T03:04:48;4.47;;;3.90;;
12725;SDS011;6427;49.754;6.106;2022-08-14T03:07:15;4.00;;;3.60;;
12725;SDS011;6427;49.754;6.106;2022-08-14T03:09:43;4.17;;;3.77;;
12725;SDS011;6427;49.754;6.106;2022-08-14T03:12:10;5.87;;;3.57;;
12725;SDS011;6427;49.754;6.106;2022-08-14T03:14:38;6.10;;;4.00;;
12725;SDS011;6427;49.754;6.106;2022-08-14T03:17:06;3.97;;;3.67;;
12725;SDS011;6427;49.754;6.106;2022-08-14T03:19:34;7.03;;;3.80;;
12725;SDS011;6427;49.754;6.106;2022-08-14T03:22:02;4.60;;;3.97;;
12725;SDS011;6427;49.754;6.106;2022-08-14T03:24:29;6.53;;;4.00;;
12725;SDS011;6427;49.754;6.106;2022-08-14T03:26:58;3.60;;;3.30;;
12725;SDS011;6427;49.754;6.106;2022-08-14T03:29:26;4.20;;;3.83;;
12725;SDS011;6427;49.754;6.106;2022-08-14T03:31:54;3.87;;;3.30;;
12725;SDS011;6427;49.754;6.106;2022-08-14T03:34:21;6.57;;;3.70;;
12725;SDS011;6427;49.754;6.106;2022-08-14T03:36:50;6.30;;;3.50;;
12725;SDS011;6427;49.754;6.106;2022-08-14T03:39:17;6.83;;;3.50;;
12725;SDS011;6427;49.754;6.106;2022-08-14T03:41:45;5.57;;;3.70;;
12725;SDS011;6427;49.754;6.106;2022-08-14T03:44:13;4.90;;;3.30;;
12725;SDS011;6427;49.754;6.106;2022-08-14T03:46:41;7.37;;;4.13;;
12725;SDS011;6427;49.754;6.106;2022-08-14T03:49:09;4.13;;;3.73;;
12725;SDS011;6427;49.754;6.106;2022-08-14T03:51:36;3.90;;;3.60;;
12725;SDS011;6427;49.754;6.106;2022-08-14T03:54:04;5.27;;;3.77;;
12725;SDS011;6427;49.754;6.106;2022-08-14T03:56:32;4.87;;;4.47;;
12725;SDS011;6427;49.754;6.106;2022-08-14T03:59:02;4.73;;;4.23;;
12725;SDS011;6427;49.754;6.106;2022-08-14T04:01:31;5.03;;;4.60;;
12725;SDS011;6427;49.754;6.106;2022-08-14T04:03:58;7.13;;;4.10;;
12725;SDS011;6427;49.754;6.106;2022-08-14T04:06:26;4.43;;;4.03;;
12725;SDS011;6427;49.754;6.106;2022-08-14T04:08:53;5.20;;;4.40;;
12725;SDS011;6427;49.754;6.106;2022-08-14T04:11:22;4.83;;;4.30;;
12725;SDS011;6427;49.754;6.106;2022-08-14T04:13:50;4.57;;;4.17;;
12725;SDS011;6427;49.754;6.106;2022-08-14T04:16:19;5.57;;;4.23;;
12725;SDS011;6427;49.754;6.106;2022-08-14T04:18:47;6.27;;;4.20;;
12725;SDS011;6427;49.754;6.106;2022-08-14T04:21:14;4.40;;;4.00;;
12725;SDS011;6427;49.754;6.106;2022-08-14T04:23:42;5.00;;;3.97;;
12725;SDS011;6427;49.754;6.106;2022-08-14T04:26:11;6.70;;;4.50;;
12725;SDS011;6427;49.754;6.106;2022-08-14T04:28:39;5.72;;;4.47;;
12725;SDS011;6427;49.754;6.106;2022-08-14T04:31:07;4.80;;;4.40;;
12725;SDS011;6427;49.754;6.106;2022-08-14T04:33:34;4.53;;;4.13;;
12725;SDS011;6427;49.754;6.106;2022-08-14T04:36:03;4.63;;;4.20;;
12725;SDS011;6427;49.754;6.106;2022-08-14T04:38:30;8.97;;;4.47;;
12725;SDS011;6427;49.754;6.106;2022-08-14T04:41:17;4.27;;;3.90;;
12725;SDS011;6427;49.754;6.106;2022-08-14T04:44:04;4.93;;;4.10;;
12725;SDS011;6427;49.754;6.106;2022-08-14T04:46:32;6.73;;;4.30;;
12725;SDS011;6427;49.754;6.106;2022-08-14T04:48:59;4.83;;;4.33;;
12725;SDS011;6427;49.754;6.106;2022-08-14T04:51:26;7.57;;;4.60;;
12725;SDS011;6427;49.754;6.106;2022-08-14T04:53:56;4.80;;;4.30;;
12725;SDS011;6427;49.754;6.106;2022-08-14T04:56:23;4.80;;;4.40;;
12725;SDS011;6427;49.754;6.106;2022-08-14T04:58:50;4.20;;;3.80;;
12725;SDS011;6427;49.754;6.106;2022-08-14T05:01:17;5.20;;;4.27;;
12725;SDS011;6427;49.754;6.106;2022-08-14T05:03:44;7.93;;;4.40;;
12725;SDS011;6427;49.754;6.106;2022-08-14T05:06:13;5.17;;;4.60;;
12725;SDS011;6427;49.754;6.106;2022-08-14T05:08:41;6.17;;;4.20;;
12725;SDS011;6427;49.754;6.106;2022-08-14T05:11:08;5.63;;;4.10;;
12725;SDS011;6427;49.754;6.106;2022-08-14T05:13:36;5.27;;;4.20;;
12725;SDS011;6427;49.754;6.106;2022-08-14T05:16:04;4.67;;;4.27;;
12725;SDS011;6427;49.754;6.106;2022-08-14T05:18:33;4.80;;;4.40;;
12725;SDS011;6427;49.754;6.106;2022-08-14T05:21:05;5.22;;;4.72;;
12725;SDS011;6427;49.754;6.106;2022-08-14T05:23:33;5.22;;;4.82;;
12725;SDS011;6427;49.754;6.106;2022-08-14T05:26:00;5.07;;;4.50;;
12725;SDS011;6427;49.754;6.106;2022-08-14T05:28:30;4.93;;;4.47;;
12725;SDS011;6427;49.754;6.106;2022-08-14T05:30:57;5.33;;;4.93;;
12725;SDS011;6427;49.754;6.106;2022-08-14T05:33:24;6.07;;;4.77;;
12725;SDS011;6427;49.754;6.106;2022-08-14T05:35:52;7.40;;;4.90;;
12725;SDS011;6427;49.754;6.106;2022-08-14T05:38:20;7.80;;;4.63;;
12725;SDS011;6427;49.754;6.106;2022-08-14T05:40:50;5.97;;;5.37;;
12725;SDS011;6427;49.754;6.106;2022-08-14T05:43:18;5.53;;;5.10;;
12725;SDS011;6427;49.754;6.106;2022-08-14T05:45:47;8.97;;;5.60;;
12725;SDS011;6427;49.754;6.106;2022-08-14T05:48:14;5.90;;;4.97;;
12725;SDS011;6427;49.754;6.106;2022-08-14T05:50:42;6.83;;;5.77;;
12725;SDS011;6427;49.754;6.106;2022-08-14T05:53:10;6.17;;;5.57;;
12725;SDS011;6427;49.754;6.106;2022-08-14T05:55:37;7.60;;;5.67;;
12725;SDS011;6427;49.754;6.106;2022-08-14T05:58:06;6.23;;;5.60;;
12725;SDS011;6427;49.754;6.106;2022-08-14T06:00:38;5.90;;;5.30;;
12725;SDS011;6427;49.754;6.106;2022-08-14T06:03:05;5.40;;;5.00;;
12725;SDS011;6427;49.754;6.106;2022-08-14T06:05:31;6.03;;;5.13;;
12725;SDS011;6427;49.754;6.106;2022-08-14T06:07:59;5.27;;;4.77;;
12725;SDS011;6427;49.754;6.106;2022-08-14T06:10:28;5.73;;;5.07;;
12725;SDS011;6427;49.754;6.106;2022-08-14T06:12:56;7.13;;;5.47;;
12725;SDS011;6427;49.754;6.106;2022-08-14T06:15:23;5.10;;;4.60;;
12725;SDS011;6427;49.754;6.106;2022-08-14T06:17:52;5.40;;;4.90;;
12725;SDS011;6427;49.754;6.106;2022-08-14T06:20:19;6.33;;;5.10;;
12725;SDS011;6427;49.754;6.106;2022-08-14T06:22:47;6.60;;;5.05;;
12725;SDS011;6427;49.754;6.106;2022-08-14T06:25:14;5.37;;;4.87;;
12725;SDS011;6427;49.754;6.106;2022-08-14T06:27:42;7.70;;;5.20;;
12725;SDS011;6427;49.754;6.106;2022-08-14T06:30:12;6.50;;;5.23;;
12725;SDS011;6427;49.754;6.106;2022-08-14T06:32:39;5.70;;;5.20;;
12725;SDS011;6427;49.754;6.106;2022-08-14T06:35:08;6.03;;;5.43;;
12725;SDS011;6427;49.754;6.106;2022-08-14T06:37:38;6.27;;;5.17;;
12725;SDS011;6427;49.754;6.106;2022-08-14T06:40:06;5.53;;;5.03;;
12725;SDS011;6427;49.754;6.106;2022-08-14T06:42:33;6.50;;;5.23;;
12725;SDS011;6427;49.754;6.106;2022-08-14T06:45:02;8.37;;;4.97;;
12725;SDS011;6427;49.754;6.106;2022-08-14T06:47:32;6.17;;;5.10;;
12725;SDS011;6427;49.754;6.106;2022-08-14T06:49:57;5.90;;;4.97;;
12725;SDS011;6427;49.754;6.106;2022-08-14T06:52:25;6.50;;;5.07;;
12725;SDS011;6427;49.754;6.106;2022-08-14T06:54:53;7.20;;;5.60;;
12725;SDS011;6427;49.754;6.106;2022-08-14T06:57:21;5.87;;;5.10;;
12725;SDS011;6427;49.754;6.106;2022-08-14T06:59:50;6.10;;;5.03;;
12725;SDS011;6427;49.754;6.106;2022-08-14T07:02:18;6.07;;;4.80;;
12725;SDS011;6427;49.754;6.106;2022-08-14T07:05:04;5.20;;;4.70;;
12725;SDS011;6427;49.754;6.106;2022-08-14T07:07:50;5.27;;;4.83;;
12725;SDS011;6427;49.754;6.106;2022-08-14T07:10:17;8.57;;;5.33;;
12725;SDS011;6427;49.754;6.106;2022-08-14T07:12:45;5.50;;;5.00;;
12725;SDS011;6427;49.754;6.106;2022-08-14T07:15:12;5.20;;;4.80;;
12725;SDS011;6427;49.754;6.106;2022-08-14T07:17:44;6.22;;;5.30;;
12725;SDS011;6427;49.754;6.106;2022-08-14T07:20:14;5.40;;;4.70;;
12725;SDS011;6427;49.754;6.106;2022-08-14T07:22:43;5.27;;;4.50;;
12725;SDS011;6427;49.754;6.106;2022-08-14T07:25:12;5.70;;;5.20;;
12725;SDS011;6427;49.754;6.106;2022-08-14T07:27:39;6.17;;;4.80;;
12725;SDS011;6427;49.754;6.106;2022-08-14T07:30:07;5.87;;;5.28;;
12725;SDS011;6427;49.754;6.106;2022-08-14T07:32:35;4.97;;;4.50;;
12725;SDS011;6427;49.754;6.106;2022-08-14T07:35:02;5.23;;;4.73;;
12725;SDS011;6427;49.754;6.106;2022-08-14T07:37:31;6.87;;;5.20;;
12725;SDS011;6427;49.754;6.106;2022-08-14T07:39:59;7.90;;;4.53;;
12725;SDS011;6427;49.754;6.106;2022-08-14T07:42:27;6.00;;;5.43;;
12725;SDS011;6427;49.754;6.106;2022-08-14T07:44:54;5.20;;;4.70;;
12725;SDS011;6427;49.754;6.106;2022-08-14T07:47:22;7.90;;;5.67;;
12725;SDS011;6427;49.754;6.106;2022-08-14T07:49:55;5.70;;;5.20;;
12725;SDS011;6427;49.754;6.106;2022-08-14T07:52:20;6.60;;;5.30;;
12725;SDS011;6427;49.754;6.106;2022-08-14T07:54:48;6.28;;;5.68;;
12725;SDS011;6427;49.754;6.106;2022-08-14T07:57:16;6.63;;;5.57;;
12725;SDS011;6427;49.754;6.106;2022-08-14T07:59:45;5.80;;;5.10;;
12725;SDS011;6427;49.754;6.106;2022-08-14T08:02:14;6.07;;;5.30;;
12725;SDS011;6427;49.754;6.106;2022-08-14T08:04:42;6.63;;;5.00;;
12725;SDS011;6427;49.754;6.106;2022-08-14T08:07:09;5.30;;;4.80;;
12725;SDS011;6427;49.754;6.106;2022-08-14T08:09:36;6.53;;;5.07;;
12725;SDS011;6427;49.754;6.106;2022-08-14T08:12:04;8.50;;;5.13;;
12725;SDS011;6427;49.754;6.106;2022-08-14T08:14:32;6.20;;;5.60;;
12725;SDS011;6427;49.754;6.106;2022-08-14T08:17:01;6.10;;;5.50;;
12725;SDS011;6427;49.754;6.106;2022-08-14T08:19:28;6.13;;;5.07;;
12725;SDS011;6427;49.754;6.106;2022-08-14T08:21:57;6.22;;;5.62;;
12725;SDS011;6427;49.754;6.106;2022-08-14T08:24:25;9.53;;;5.37;;
12725;SDS011;6427;49.754;6.106;2022-08-14T08:26:53;6.30;;;5.10;;
12725;SDS011;6427;49.754;6.106;2022-08-14T08:29:21;5.75;;;5.25;;
12725;SDS011;6427;49.754;6.106;2022-08-14T08:31:49;5.43;;;4.97;;
12725;SDS011;6427;49.754;6.106;2022-08-14T08:34:17;6.97;;;4.97;;
12725;SDS011;6427;49.754;6.106;2022-08-14T08:36:45;6.03;;;4.80;;
12725;SDS011;6427;49.754;6.106;2022-08-14T08:39:12;6.20;;;4.90;;
12725;SDS011;6427;49.754;6.106;2022-08-14T08:41:44;4.80;;;4.40;;
12725;SDS011;6427;49.754;6.106;2022-08-14T08:44:13;6.63;;;5.03;;
12725;SDS011;6427;49.754;6.106;2022-08-14T08:46:42;6.32;;;5.10;;
12725;SDS011;6427;49.754;6.106;2022-08-14T08:49:08;5.07;;;4.63;;
12725;SDS011;6427;49.754;6.106;2022-08-14T08:51:36;5.43;;;4.93;;
12725;SDS011;6427;49.754;6.106;2022-08-14T08:54:09;5.60;;;4.70;;
12725;SDS011;6427;49.754;6.106;2022-08-14T08:56:37;5.83;;;4.80;;
12725;SDS011;6427;49.754;6.106;2022-08-14T08:59:16;5.33;;;4.30;;
12725;SDS011;6427;49.754;6.106;2022-08-14T09:01:56;7.40;;;4.10;;
12725;SDS011;6427;49.754;6.106;2022-08-14T09:04:24;4.10;;;3.80;;
12725;SDS011;6427;49.754;6.106;2022-08-14T09:06:52;4.60;;;4.20;;
12725;SDS011;6427;49.754;6.106;2022-08-14T09:09:23;5.27;;;4.07;;
12725;SDS011;6427;49.754;6.106;2022-08-14T09:11:54;5.20;;;4.30;;
12725;SDS011;6427;49.754;6.106;2022-08-14T09:14:26;5.73;;;4.00;;
12725;SDS011;6427;49.754;6.106;2022-08-14T09:16:49;5.33;;;3.57;;
12725;SDS011;6427;49.754;6.106;2022-08-14T09:19:18;3.93;;;3.50;;
12725;SDS011;6427;49.754;6.106;2022-08-14T09:21:46;4.30;;;3.90;;
12725;SDS011;6427;49.754;6.106;2022-08-14T09:24:14;4.83;;;4.00;;
12725;SDS011;6427;49.754;6.106;2022-08-14T09:26:42;4.70;;;4.27;;
12725;SDS011;6427;49.754;6.106;2022-08-14T09:29:10;5.63;;;3.90;;
12725;SDS011;6427;49.754;6.106;2022-08-14T09:31:39;4.80;;;4.33;;
12725;SDS011;6427;49.754;6.106;2022-08-14T09:34:21;4.37;;;3.97;;
12725;SDS011;6427;49.754;6.106;2022-08-14T09:37:10;4.27;;;3.87;;
12725;SDS011;6427;49.754;6.106;2022-08-14T09:47:43;3.70;;;3.40;;
12725;SDS011;6427;49.754;6.106;2022-08-14T09:50:20;4.03;;;3.60;;
12725;SDS011;6427;49.754;6.106;2022-08-14T09:52:51;8.50;;;4.20;;
12725;SDS011;6427;49.754;6.106;2022-08-14T09:55:17;6.77;;;3.83;;
12725;SDS011;6427;49.754;6.106;2022-08-14T09:57:45;4.70;;;3.70;;
12725;SDS011;6427;49.754;6.106;2022-08-14T10:00:12;2.83;;;2.63;;
12725;SDS011;6427;49.754;6.106;2022-08-14T10:02:49;5.63;;;2.70;;
12725;SDS011;6427;49.754;6.106;2022-08-14T10:05:08;3.03;;;2.47;;
12725;SDS011;6427;49.754;6.106;2022-08-14T10:07:48;4.18;;;2.67;;
12725;SDS011;6427;49.754;6.106;2022-08-14T10:10:11;5.63;;;2.27;;
12725;SDS011;6427;49.754;6.106;2022-08-14T10:12:43;2.47;;;2.27;;
12725;SDS011;6427;49.754;6.106;2022-08-14T10:15:15;3.30;;;2.40;;
12725;SDS011;6427;49.754;6.106;2022-08-14T10:17:41;5.03;;;2.60;;
12725;SDS011;6427;49.754;6.106;2022-08-14T10:20:10;3.30;;;2.60;;
12725;SDS011;6427;49.754;6.106;2022-08-14T10:22:38;4.57;;;2.47;;
12725;SDS011;6427;49.754;6.106;2022-08-14T10:25:09;2.50;;;2.30;;
12725;SDS011;6427;49.754;6.106;2022-08-14T10:27:36;3.90;;;2.60;;
12725;SDS011;6427;49.754;6.106;2022-08-14T10:30:10;2.63;;;2.43;;
12725;SDS011;6427;49.754;6.106;2022-08-14T10:32:41;2.77;;;2.57;;
12725;SDS011;6427;49.754;6.106;2022-08-14T10:35:06;3.40;;;2.57;;
12725;SDS011;6427;49.754;6.106;2022-08-14T10:37:39;2.70;;;2.50;;
12725;SDS011;6427;49.754;6.106;2022-08-14T10:40:06;3.70;;;3.00;;
12725;SDS011;6427;49.754;6.106;2022-08-14T10:42:35;2.53;;;2.27;;
12725;SDS011;6427;49.754;6.106;2022-08-14T10:45:14;2.90;;;2.23;;
12725;SDS011;6427;49.754;6.106;2022-08-14T10:47:34;2.70;;;2.50;;
12725;SDS011;6427;49.754;6.106;2022-08-14T10:50:05;3.13;;;2.93;;
12725;SDS011;6427;49.754;6.106;2022-08-14T10:52:32;2.53;;;2.33;;
12725;SDS011;6427;49.754;6.106;2022-08-14T10:55:07;2.93;;;2.63;;
12725;SDS011;6427;49.754;6.106;2022-08-14T10:57:44;3.75;;;2.78;;
12725;SDS011;6427;49.754;6.106;2022-08-14T11:00:13;3.30;;;2.80;;
12725;SDS011;6427;49.754;6.106;2022-08-14T11:02:39;2.77;;;2.57;;
12725;SDS011;6427;49.754;6.106;2022-08-14T11:05:08;5.33;;;2.50;;
12725;SDS011;6427;49.754;6.106;2022-08-14T11:07:35;3.57;;;2.40;;
12725;SDS011;6427;49.754;6.106;2022-08-14T11:10:05;2.73;;;2.43;;
12725;SDS011;6427;49.754;6.106;2022-08-14T11:12:38;2.87;;;2.60;;
12725;SDS011;6427;49.754;6.106;2022-08-14T11:15:05;4.53;;;2.70;;
12725;SDS011;6427;49.754;6.106;2022-08-14T11:17:33;2.60;;;2.40;;
12725;SDS011;6427;49.754;6.106;2022-08-14T11:20:01;3.30;;;2.70;;
12725;SDS011;6427;49.754;6.106;2022-08-14T11:22:29;2.83;;;2.63;;
12725;SDS011;6427;49.754;6.106;2022-08-14T11:25:01;2.80;;;2.60;;
12725;SDS011;6427;49.754;6.106;2022-08-14T11:27:27;2.83;;;2.63;;
12725;SDS011;6427;49.754;6.106;2022-08-14T11:29:54;2.70;;;2.50;;
12725;SDS011;6427;49.754;6.106;2022-08-14T11:32:23;3.30;;;2.73;;
12725;SDS011;6427;49.754;6.106;2022-08-14T11:34:51;4.07;;;2.70;;
12725;SDS011;6427;49.754;6.106;2022-08-14T11:37:19;3.28;;;2.97;;
12725;SDS011;6427;49.754;6.106;2022-08-14T11:39:47;3.00;;;2.70;;
12725;SDS011;6427;49.754;6.106;2022-08-14T11:42:19;3.80;;;2.80;;
12725;SDS011;6427;49.754;6.106;2022-08-14T11:44:46;4.13;;;2.70;;
12725;SDS011;6427;49.754;6.106;2022-08-14T11:47:13;6.17;;;3.10;;
12725;SDS011;6427;49.754;6.106;2022-08-14T11:49:41;3.90;;;3.07;;
12725;SDS011;6427;49.754;6.106;2022-08-14T11:52:08;3.17;;;2.90;;
12725;SDS011;6427;49.754;6.106;2022-08-14T11:54:36;5.10;;;4.10;;
12725;SDS011;6427;49.754;6.106;2022-08-14T11:57:04;4.20;;;2.70;;
12725;SDS011;6427;49.754;6.106;2022-08-14T11:59:31;11.63;;;7.40;;
12725;SDS011;6427;49.754;6.106;2022-08-14T12:02:08;3.07;;;2.87;;
12725;SDS011;6427;49.754;6.106;2022-08-14T12:04:35;3.03;;;2.13;;
12725;SDS011;6427;49.754;6.106;2022-08-14T12:07:05;3.50;;;2.60;;
12725;SDS011;6427;49.754;6.106;2022-08-14T12:09:34;6.43;;;2.73;;
12725;SDS011;6427;49.754;6.106;2022-08-14T12:12:00;5.47;;;3.20;;
12725;SDS011;6427;49.754;6.106;2022-08-14T12:14:27;6.30;;;2.60;;
12725;SDS011;6427;49.754;6.106;2022-08-14T12:16:59;2.92;;;2.70;;
12725;SDS011;6427;49.754;6.106;2022-08-14T12:19:26;3.43;;;2.77;;
12725;SDS011;6427;49.754;6.106;2022-08-14T12:21:54;2.87;;;2.67;;
12725;SDS011;6427;49.754;6.106;2022-08-14T12:24:26;2.80;;;2.60;;
12725;SDS011;6427;49.754;6.106;2022-08-14T12:26:55;2.70;;;2.50;;
12725;SDS011;6427;49.754;6.106;2022-08-14T12:29:23;2.43;;;2.23;;
12725;SDS011;6427;49.754;6.106;2022-08-14T12:31:58;4.53;;;2.40;;
12725;SDS011;6427;49.754;6.106;2022-08-14T12:34:29;4.17;;;2.40;;
12725;SDS011;6427;49.754;6.106;2022-08-14T12:37:05;2.30;;;2.07;;
12725;SDS011;6427;49.754;6.106;2022-08-14T12:39:32;3.60;;;2.70;;
12725;SDS011;6427;49.754;6.106;2022-08-14T12:42:00;3.23;;;2.63;;
12725;SDS011;6427;49.754;6.106;2022-08-14T12:44:28;6.17;;;2.67;;
12725;SDS011;6427;49.754;6.106;2022-08-14T12:47:04;3.97;;;2.60;;
12725;SDS011;6427;49.754;6.106;2022-08-14T12:49:32;2.95;;;2.65;;
12725;SDS011;6427;49.754;6.106;2022-08-14T12:52:00;4.00;;;2.58;;
12725;SDS011;6427;49.754;6.106;2022-08-14T12:54:29;3.40;;;2.63;;
12725;SDS011;6427;49.754;6.106;2022-08-14T12:57:08;3.27;;;2.57;;
12725;SDS011;6427;49.754;6.106;2022-08-14T12:59:34;2.47;;;2.27;;
12725;SDS011;6427;49.754;6.106;2022-08-14T13:02:02;2.63;;;2.43;;
12725;SDS011;6427;49.754;6.106;2022-08-14T13:04:29;2.57;;;2.33;;
12725;SDS011;6427;49.754;6.106;2022-08-14T13:07:02;3.23;;;2.37;;
12725;SDS011;6427;49.754;6.106;2022-08-14T13:09:28;2.77;;;2.50;;
12725;SDS011;6427;49.754;6.106;2022-08-14T13:11:56;2.43;;;2.23;;
12725;SDS011;6427;49.754;6.106;2022-08-14T13:14:24;2.95;;;2.45;;
12725;SDS011;6427;49.754;6.106;2022-08-14T13:16:53;2.85;;;2.45;;
12725;SDS011;6427;49.754;6.106;2022-08-14T13:19:20;4.00;;;2.50;;
12725;SDS011;6427;49.754;6.106;2022-08-14T13:21:48;2.60;;;2.40;;
12725;SDS011;6427;49.754;6.106;2022-08-14T13:24:16;2.35;;;2.15;;
12725;SDS011;6427;49.754;6.106;2022-08-14T13:26:47;2.30;;;2.20;;
12725;SDS011;6427;49.754;6.106;2022-08-14T13:29:14;3.60;;;2.50;;
12725;SDS011;6427;49.754;6.106;2022-08-14T13:31:42;3.85;;;2.58;;
12725;SDS011;6427;49.754;6.106;2022-08-14T13:34:11;3.78;;;2.47;;
12725;SDS011;6427;49.754;6.106;2022-08-14T13:36:37;4.03;;;2.40;;
12725;SDS011;6427;49.754;6.106;2022-08-14T13:39:05;5.30;;;2.65;;
12725;SDS011;6427;49.754;6.106;2022-08-14T13:41:32;3.03;;;2.78;;
12725;SDS011;6427;49.754;6.106;2022-08-14T13:44:00;2.75;;;2.50;;
12725;SDS011;6427;49.754;6.106;2022-08-14T13:46:28;3.33;;;2.25;;
12725;SDS011;6427;49.754;6.106;2022-08-14T13:48:56;4.20;;;2.58;;
12725;SDS011;6427;49.754;6.106;2022-08-14T13:51:24;3.00;;;2.40;;
12725;SDS011;6427;49.754;6.106;2022-08-14T13:53:51;6.33;;;2.30;;
12725;SDS011;6427;49.754;6.106;2022-08-14T13:56:19;3.25;;;2.60;;
12725;SDS011;6427;49.754;6.106;2022-08-14T13:58:47;3.12;;;2.60;;
12725;SDS011;6427;49.754;6.106;2022-08-14T14:01:16;3.25;;;2.37;;
12725;SDS011;6427;49.754;6.106;2022-08-14T14:03:43;3.90;;;2.37;;
12725;SDS011;6427;49.754;6.106;2022-08-14T14:06:12;2.67;;;2.30;;
12725;SDS011;6427;49.754;6.106;2022-08-14T14:08:40;3.17;;;2.42;;
12725;SDS011;6427;49.754;6.106;2022-08-14T14:11:06;2.25;;;2.08;;
12725;SDS011;6427;49.754;6.106;2022-08-14T14:13:34;4.20;;;2.65;;
12725;SDS011;6427;49.754;6.106;2022-08-14T14:16:02;2.90;;;2.65;;
12725;SDS011;6427;49.754;6.106;2022-08-14T14:18:29;3.25;;;2.72;;
12725;SDS011;6427;49.754;6.106;2022-08-14T14:20:57;4.25;;;2.08;;
12725;SDS011;6427;49.754;6.106;2022-08-14T14:23:24;3.35;;;2.37;;
12725;SDS011;6427;49.754;6.106;2022-08-14T14:25:53;3.20;;;2.20;;
12725;SDS011;6427;49.754;6.106;2022-08-14T14:28:21;3.75;;;2.30;;
12725;SDS011;6427;49.754;6.106;2022-08-14T14:30:49;5.07;;;2.40;;
12725;SDS011;6427;49.754;6.106;2022-08-14T14:33:18;2.80;;;2.60;;
12725;SDS011;6427;49.754;6.106;2022-08-14T14:35:45;3.40;;;2.25;;
12725;SDS011;6427;49.754;6.106;2022-08-14T14:38:16;2.60;;;2.40;;
12725;SDS011;6427;49.754;6.106;2022-08-14T14:40:42;2.50;;;2.30;;
12725;SDS011;6427;49.754;6.106;2022-08-14T14:43:09;2.87;;;2.20;;
12725;SDS011;6427;49.754;6.106;2022-08-14T14:45:36;3.05;;;2.05;;
12725;SDS011;6427;49.754;6.106;2022-08-14T14:48:06;2.95;;;1.87;;
12725;SDS011;6427;49.754;6.106;2022-08-14T14:50:32;2.22;;;2.12;;
12725;SDS011;6427;49.754;6.106;2022-08-14T14:52:59;3.37;;;1.95;;
12725;SDS011;6427;49.754;6.106;2022-08-14T14:55:27;2.20;;;2.10;;
12725;SDS011;6427;49.754;6.106;2022-08-14T14:57:55;3.58;;;1.98;;
12725;SDS011;6427;49.754;6.106;2022-08-14T15:00:23;2.30;;;2.10;;
12725;SDS011;6427;49.754;6.106;2022-08-14T15:02:52;3.72;;;2.30;;
12725;SDS011;6427;49.754;6.106;2022-08-14T15:05:19;3.12;;;2.20;;
12725;SDS011;6427;49.754;6.106;2022-08-14T15:07:47;2.30;;;2.10;;
12725;SDS011;6427;49.754;6.106;2022-08-14T15:10:14;3.12;;;2.05;;
12725;SDS011;6427;49.754;6.106;2022-08-14T15:12:42;2.42;;;2.20;;
12725;SDS011;6427;49.754;6.106;2022-08-14T15:15:12;2.10;;;1.90;;
12725;SDS011;6427;49.754;6.106;2022-08-14T15:17:39;1.83;;;1.73;;